sensor_id;sensor_type;location;lat;lon;timestamp;pressure;altitude;pressure_sealevel;temperature;humidity
596;BME280;19946;49.306;11.350;2022-10-31T00:00:59;96861.34;;;8.83;100.00
596;BME280;19946;49.306;11.350;2022-10-31T00:04:03;96861.91;;;8.62;100.00
596;BME280;19946;49.306;11.350;2022-10-31T00:07:03;96859.09;;;8.65;100.00
596;BME280;19946;49.306;11.350;2022-10-31T00:10:04;96863.03;;;8.71;100.00
596;BME280;19946;49.306;11.350;2022-10-31T00:13:06;96868.91;;;8.73;100.00
596;BME280;19946;49.306;11.350;2022-10-31T00:16:13;96860.41;;;8.84;100.00
596;BME280;19946;49.306;11.350;2022-10-31T00:19:14;96867.75;;;8.77;100.00
596;BME280;19946;49.306;11.350;2022-10-31T00:22:14;96859.63;;;8.70;100.00
596;BME280;19946;49.306;11.350;2022-10-31T00:25:15;96869.03;;;8.59;100.00
596;BME280;19946;49.306;11.350;2022-10-31T00:28:15;96861.56;;;8.67;100.00
596;BME280;19946;49.306;11.350;2022-10-31T00:31:15;96868.00;;;8.61;100.00
596;BME280;19946;49.306;11.350;2022-10-31T00:34:16;96861.56;;;8.67;100.00
596;BME280;19946;49.306;11.350;2022-10-31T00:37:16;96862.72;;;8.75;100.00
596;BME280;19946;49.306;11.350;2022-10-31T00:40:18;96866.53;;;8.70;100.00
596;BME280;19946;49.306;11.350;2022-10-31T00:43:18;96874.38;;;8.68;100.00
596;BME280;19946;49.306;11.350;2022-10-31T00:46:18;96859.72;;;8.69;100.00
596;BME280;19946;49.306;11.350;2022-10-31T00:49:19;96873.09;;;8.87;100.00
596;BME280;19946;49.306;11.350;2022-10-31T00:52:20;96868.47;;;9.03;100.00
596;BME280;19946;49.306;11.350;2022-10-31T00:55:20;96875.41;;;9.02;100.00
596;BME280;19946;49.306;11.350;2022-10-31T00:58:21;96872.91;;;9.01;100.00
596;BME280;19946;49.306;11.350;2022-10-31T01:01:21;96880.50;;;8.91;100.00
596;BME280;19946;49.306;11.350;2022-10-31T01:04:23;96882.50;;;8.51;100.00
596;BME280;19946;49.306;11.350;2022-10-31T01:07:24;96887.94;;;8.59;100.00
596;BME280;19946;49.306;11.350;2022-10-31T01:10:24;96885.19;;;8.50;100.00
596;BME280;19946;49.306;11.350;2022-10-31T01:13:25;96894.38;;;8.54;100.00
596;BME280;19946;49.306;11.350;2022-10-31T01:16:27;96887.97;;;8.83;100.00
596;BME280;19946;49.306;11.350;2022-10-31T01:19:28;96882.13;;;9.05;100.00
596;BME280;19946;49.306;11.350;2022-10-31T01:22:31;96880.03;;;8.86;100.00
596;BME280;19946;49.306;11.350;2022-10-31T01:25:34;96884.53;;;8.59;100.00
596;BME280;19946;49.306;11.350;2022-10-31T01:28:37;96887.00;;;8.60;100.00
596;BME280;19946;49.306;11.350;2022-10-31T01:31:38;96888.28;;;8.78;100.00
596;BME280;19946;49.306;11.350;2022-10-31T01:34:39;96880.03;;;8.86;100.00
596;BME280;19946;49.306;11.350;2022-10-31T01:37:39;96888.84;;;8.71;100.00
596;BME280;19946;49.306;11.350;2022-10-31T01:40:40;96876.56;;;8.74;100.00
596;BME280;19946;49.306;11.350;2022-10-31T01:43:55;96878.31;;;8.74;100.00
596;BME280;19946;49.306;11.350;2022-10-31T01:47:00;96881.06;;;8.84;100.00
596;BME280;19946;49.306;11.350;2022-10-31T01:50:05;96880.53;;;8.78;100.00
596;BME280;19946;49.306;11.350;2022-10-31T01:53:07;96879.41;;;8.83;100.00
596;BME280;19946;49.306;11.350;2022-10-31T01:56:09;96868.28;;;8.69;100.00
596;BME280;19946;49.306;11.350;2022-10-31T01:59:13;96875.31;;;8.67;100.00
596;BME280;19946;49.306;11.350;2022-10-31T02:02:18;96875.03;;;8.59;100.00
596;BME280;19946;49.306;11.350;2022-10-31T02:05:22;96868.13;;;8.47;100.00
596;BME280;19946;49.306;11.350;2022-10-31T02:08:30;96870.78;;;8.58;100.00
596;BME280;19946;49.306;11.350;2022-10-31T02:11:32;96868.22;;;8.58;100.00
596;BME280;19946;49.306;11.350;2022-10-31T02:14:37;96867.28;;;8.59;100.00
596;BME280;19946;49.306;11.350;2022-10-31T02:17:38;96868.72;;;8.63;100.00
596;BME280;19946;49.306;11.350;2022-10-31T02:20:58;96874.19;;;8.71;100.00
596;BME280;19946;49.306;11.350;2022-10-31T02:24:40;96862.09;;;8.72;100.00
596;BME280;19946;49.306;11.350;2022-10-31T02:34:12;96861.94;;;9.10;100.00
596;BME280;19946;49.306;11.350;2022-10-31T02:37:30;96859.19;;;9.00;100.00
596;BME280;19946;49.306;11.350;2022-10-31T02:40:39;96854.31;;;9.08;100.00
596;BME280;19946;49.306;11.350;2022-10-31T02:44:15;96848.22;;;9.21;100.00
596;BME280;19946;49.306;11.350;2022-10-31T02:47:33;96849.16;;;9.08;100.00
596;BME280;19946;49.306;11.350;2022-10-31T02:50:38;96847.97;;;8.89;100.00
596;BME280;19946;49.306;11.350;2022-10-31T02:53:40;96854.97;;;8.75;100.00
596;BME280;19946;49.306;11.350;2022-10-31T02:56:42;96848.03;;;8.76;100.00
596;BME280;19946;49.306;11.350;2022-10-31T02:59:52;96857.75;;;8.72;100.00
596;BME280;19946;49.306;11.350;2022-10-31T03:03:20;96847.44;;;8.72;100.00
596;BME280;19946;49.306;11.350;2022-10-31T03:13:10;96849.25;;;9.07;100.00
596;BME280;19946;49.306;11.350;2022-10-31T03:16:37;96841.97;;;8.88;100.00
596;BME280;19946;49.306;11.350;2022-10-31T03:19:40;96852.84;;;8.44;100.00
596;BME280;19946;49.306;11.350;2022-10-31T03:22:42;96858.66;;;8.35;100.00
596;BME280;19946;49.306;11.350;2022-10-31T03:25:45;96855.97;;;8.24;100.00
596;BME280;19946;49.306;11.350;2022-10-31T03:28:53;96853.50;;;8.22;100.00
596;BME280;19946;49.306;11.350;2022-10-31T03:32:01;96853.50;;;8.22;100.00
596;BME280;19946;49.306;11.350;2022-10-31T03:35:05;96847.00;;;8.29;100.00
596;BME280;19946;49.306;11.350;2022-10-31T03:38:08;96851.44;;;8.40;100.00
596;BME280;19946;49.306;11.350;2022-10-31T03:41:13;96846.19;;;8.41;100.00
596;BME280;19946;49.306;11.350;2022-10-31T03:44:20;96857.34;;;7.79;100.00
596;BME280;19946;49.306;11.350;2022-10-31T03:47:30;96848.56;;;7.56;100.00
596;BME280;19946;49.306;11.350;2022-10-31T03:51:19;96856.69;;;7.50;100.00
596;BME280;19946;49.306;11.350;2022-10-31T03:54:23;96858.53;;;7.48;100.00
596;BME280;19946;49.306;11.350;2022-10-31T03:57:33;96847.69;;;7.30;100.00
596;BME280;19946;49.306;11.350;2022-10-31T04:00:42;96854.47;;;7.18;100.00
596;BME280;19946;49.306;11.350;2022-10-31T04:03:45;96842.00;;;7.25;100.00
596;BME280;19946;49.306;11.350;2022-10-31T04:06:47;96848.81;;;7.26;100.00
596;BME280;19946;49.306;11.350;2022-10-31T04:09:50;96846.97;;;7.28;100.00
596;BME280;19946;49.306;11.350;2022-10-31T04:13:03;96849.13;;;7.21;100.00
596;BME280;19946;49.306;11.350;2022-10-31T04:16:13;96845.09;;;7.17;100.00
596;BME280;19946;49.306;11.350;2022-10-31T04:19:15;96847.97;;;7.25;100.00
596;BME280;19946;49.306;11.350;2022-10-31T04:22:16;96844.84;;;7.47;100.00
596;BME280;19946;49.306;11.350;2022-10-31T04:25:17;96842.16;;;7.49;100.00
596;BME280;19946;49.306;11.350;2022-10-31T04:28:18;96842.38;;;7.46;100.00
596;BME280;19946;49.306;11.350;2022-10-31T04:31:19;96843.19;;;7.33;100.00
596;BME280;19946;49.306;11.350;2022-10-31T04:34:22;96840.88;;;7.29;100.00
596;BME280;19946;49.306;11.350;2022-10-31T04:37:24;96838.50;;;7.26;100.00
596;BME280;19946;49.306;11.350;2022-10-31T04:40:24;96843.25;;;7.19;100.00
596;BME280;19946;49.306;11.350;2022-10-31T04:43:57;96846.38;;;6.97;100.00
596;BME280;19946;49.306;11.350;2022-10-31T04:46:57;96849.75;;;6.71;100.00
596;BME280;19946;49.306;11.350;2022-10-31T04:49:58;96850.38;;;6.89;100.00
596;BME280;19946;49.306;11.350;2022-10-31T04:52:58;96843.91;;;6.96;100.00
596;BME280;19946;49.306;11.350;2022-10-31T04:56:02;96839.63;;;7.09;100.00
596;BME280;19946;49.306;11.350;2022-10-31T04:59:14;96841.16;;;7.12;100.00
596;BME280;19946;49.306;11.350;2022-10-31T05:02:23;96844.88;;;6.81;100.00
596;BME280;19946;49.306;11.350;2022-10-31T05:05:30;96852.59;;;6.81;100.00
596;BME280;19946;49.306;11.350;2022-10-31T05:08:33;96838.59;;;6.85;100.00
596;BME280;19946;49.306;11.350;2022-10-31T05:11:37;96839.88;;;6.92;100.00
596;BME280;19946;49.306;11.350;2022-10-31T05:14:59;96842.78;;;7.00;100.00
596;BME280;19946;49.306;11.350;2022-10-31T05:18:18;96836.34;;;6.93;100.00
596;BME280;19946;49.306;11.350;2022-10-31T05:21:37;96844.09;;;6.93;100.00
596;BME280;19946;49.306;11.350;2022-10-31T05:24:38;96844.09;;;6.93;100.00
596;BME280;19946;49.306;11.350;2022-10-31T05:27:40;96841.72;;;6.90;100.00
596;BME280;19946;49.306;11.350;2022-10-31T05:30:40;96836.75;;;6.87;100.00
596;BME280;19946;49.306;11.350;2022-10-31T05:33:45;96840.59;;;6.94;100.00
596;BME280;19946;49.306;11.350;2022-10-31T05:37:04;96831.72;;;6.85;100.00
596;BME280;19946;49.306;11.350;2022-10-31T05:40:06;96836.56;;;6.90;100.00
596;BME280;19946;49.306;11.350;2022-10-31T05:43:08;96833.28;;;6.88;100.00
596;BME280;19946;49.306;11.350;2022-10-31T05:46:08;96835.25;;;6.97;100.00
596;BME280;19946;49.306;11.350;2022-10-31T05:49:27;96827.34;;;7.00;100.00
596;BME280;19946;49.306;11.350;2022-10-31T05:52:46;96824.47;;;6.78;100.00
596;BME280;19946;49.306;11.350;2022-10-31T05:56:03;96823.00;;;6.47;100.00
596;BME280;19946;49.306;11.350;2022-10-31T05:59:04;96829.16;;;6.44;100.00
596;BME280;19946;49.306;11.350;2022-10-31T06:02:04;96834.06;;;6.62;100.00
596;BME280;19946;49.306;11.350;2022-10-31T06:05:28;96843.44;;;6.63;100.00
596;BME280;19946;49.306;11.350;2022-10-31T06:08:29;96840.28;;;6.72;100.00
596;BME280;19946;49.306;11.350;2022-10-31T06:11:31;96841.66;;;6.77;100.00
596;BME280;19946;49.306;11.350;2022-10-31T06:14:37;96844.28;;;6.90;100.00
596;BME280;19946;49.306;11.350;2022-10-31T06:17:38;96849.88;;;6.96;100.00
596;BME280;19946;49.306;11.350;2022-10-31T06:20:58;96844.09;;;6.93;100.00
596;BME280;19946;49.306;11.350;2022-10-31T06:23:59;96845.81;;;6.92;100.00
596;BME280;19946;49.306;11.350;2022-10-31T06:27:26;96841.03;;;6.74;100.00
596;BME280;19946;49.306;11.350;2022-10-31T06:30:27;96853.69;;;6.91;100.00
596;BME280;19946;49.306;11.350;2022-10-31T06:33:27;96851.63;;;6.96;100.00
596;BME280;19946;49.306;11.350;2022-10-31T06:36:34;96857.41;;;7.00;100.00
596;BME280;19946;49.306;11.350;2022-10-31T06:39:36;96853.69;;;7.04;100.00
596;BME280;19946;49.306;11.350;2022-10-31T06:42:38;96860.63;;;7.16;100.00
596;BME280;19946;49.306;11.350;2022-10-31T06:45:38;96854.81;;;7.39;100.00
596;BME280;19946;49.306;11.350;2022-10-31T06:48:59;96858.13;;;7.41;100.00
596;BME280;19946;49.306;11.350;2022-10-31T06:52:10;96864.09;;;7.42;100.00
596;BME280;19946;49.306;11.350;2022-10-31T06:55:11;96858.06;;;7.55;100.00
596;BME280;19946;49.306;11.350;2022-10-31T06:58:11;96868.81;;;7.87;100.00
596;BME280;19946;49.306;11.350;2022-10-31T07:01:13;96855.28;;;7.96;100.00
596;BME280;19946;49.306;11.350;2022-10-31T07:04:14;96861.88;;;8.00;100.00
596;BME280;19946;49.306;11.350;2022-10-31T07:07:14;96861.03;;;8.13;100.00
596;BME280;19946;49.306;11.350;2022-10-31T07:10:15;96866.63;;;8.32;100.00
596;BME280;19946;49.306;11.350;2022-10-31T07:13:24;96864.22;;;8.54;100.00
596;BME280;19946;49.306;11.350;2022-10-31T07:16:28;96865.97;;;8.54;100.00
596;BME280;19946;49.306;11.350;2022-10-31T07:19:29;96867.03;;;8.75;100.00
596;BME280;19946;49.306;11.350;2022-10-31T07:22:34;96860.00;;;9.01;100.00
596;BME280;19946;49.306;11.350;2022-10-31T07:25:34;96858.19;;;9.14;100.00
596;BME280;19946;49.306;11.350;2022-10-31T07:28:46;96852.28;;;9.36;100.00
596;BME280;19946;49.306;11.350;2022-10-31T07:31:48;96853.75;;;9.51;100.00
596;BME280;19946;49.306;11.350;2022-10-31T07:34:55;96847.91;;;9.60;100.00
596;BME280;19946;49.306;11.350;2022-10-31T07:37:57;96849.34;;;9.29;100.00
596;BME280;19946;49.306;11.350;2022-10-31T07:40:58;96851.13;;;9.40;100.00
596;BME280;19946;49.306;11.350;2022-10-31T07:44:01;96846.34;;;9.46;100.00
596;BME280;19946;49.306;11.350;2022-10-31T07:47:21;96842.00;;;9.58;100.00
596;BME280;19946;49.306;11.350;2022-10-31T07:50:42;96845.09;;;9.74;100.00
596;BME280;19946;49.306;11.350;2022-10-31T07:54:01;96838.91;;;9.99;100.00
596;BME280;19946;49.306;11.350;2022-10-31T07:57:04;96836.66;;;10.17;100.00
596;BME280;19946;49.306;11.350;2022-10-31T08:00:09;96839.88;;;10.32;100.00
596;BME280;19946;49.306;11.350;2022-10-31T08:03:17;96837.75;;;10.59;100.00
596;BME280;19946;49.306;11.350;2022-10-31T08:06:47;96832.84;;;10.88;100.00
596;BME280;19946;49.306;11.350;2022-10-31T08:10:02;96834.03;;;11.16;100.00
596;BME280;19946;49.306;11.350;2022-10-31T08:13:09;96830.31;;;11.29;100.00
596;BME280;19946;49.306;11.350;2022-10-31T08:16:13;96825.53;;;11.46;100.00
596;BME280;19946;49.306;11.350;2022-10-31T08:19:23;96823.78;;;11.67;100.00
596;BME280;19946;49.306;11.350;2022-10-31T08:22:24;96817.75;;;11.87;100.00
596;BME280;19946;49.306;11.350;2022-10-31T08:25:26;96818.84;;;12.15;100.00
596;BME280;19946;49.306;11.350;2022-10-31T08:28:26;96817.03;;;12.46;100.00
596;BME280;19946;49.306;11.350;2022-10-31T08:31:28;96818.47;;;12.79;100.00
596;BME280;19946;49.306;11.350;2022-10-31T08:35:01;96815.13;;;13.27;100.00
596;BME280;19946;49.306;11.350;2022-10-31T08:38:09;96812.88;;;13.70;100.00
596;BME280;19946;49.306;11.350;2022-10-31T08:41:11;96806.69;;;14.18;100.00
596;BME280;19946;49.306;11.350;2022-10-31T08:44:11;96814.53;;;14.55;100.00
596;BME280;19946;49.306;11.350;2022-10-31T08:47:12;96800.47;;;15.37;100.00
596;BME280;19946;49.306;11.350;2022-10-31T08:50:12;96806.06;;;15.77;100.00
596;BME280;19946;49.306;11.350;2022-10-31T08:53:18;96806.59;;;15.63;100.00
596;BME280;19946;49.306;11.350;2022-10-31T08:56:22;96806.03;;;16.37;100.00
596;BME280;19946;49.306;11.350;2022-10-31T08:59:23;96800.00;;;16.78;100.00
596;BME280;19946;49.306;11.350;2022-10-31T09:02:42;96794.63;;;16.88;100.00
596;BME280;19946;49.306;11.350;2022-10-31T09:05:42;96793.88;;;17.36;100.00
596;BME280;19946;49.306;11.350;2022-10-31T09:08:45;96793.06;;;17.60;100.00
596;BME280;19946;49.306;11.350;2022-10-31T09:11:45;96786.75;;;18.10;100.00
596;BME280;19946;49.306;11.350;2022-10-31T09:15:05;96782.09;;;18.36;100.00
596;BME280;19946;49.306;11.350;2022-10-31T09:18:26;96788.09;;;18.84;100.00
596;BME280;19946;49.306;11.350;2022-10-31T09:21:32;96788.44;;;19.12;100.00
596;BME280;19946;49.306;11.350;2022-10-31T09:24:33;96784.50;;;19.08;100.00
596;BME280;19946;49.306;11.350;2022-10-31T09:27:33;96775.00;;;19.29;100.00
596;BME280;19946;49.306;11.350;2022-10-31T09:30:36;96785.09;;;19.41;100.00
596;BME280;19946;49.306;11.350;2022-10-31T09:33:36;96780.09;;;19.54;100.00
596;BME280;19946;49.306;11.350;2022-10-31T09:36:57;96780.84;;;19.40;100.00
596;BME280;19946;49.306;11.350;2022-10-31T09:39:58;96771.25;;;19.69;100.00
596;BME280;19946;49.306;11.350;2022-10-31T09:43:15;96776.38;;;20.30;100.00
596;BME280;19946;49.306;11.350;2022-10-31T09:49:53;96773.56;;;20.17;100.00
596;BME280;19946;49.306;11.350;2022-10-31T09:53:03;96773.25;;;19.82;100.00
596;BME280;19946;49.306;11.350;2022-10-31T09:56:10;96772.28;;;19.98;100.00
596;BME280;19946;49.306;11.350;2022-10-31T09:59:28;96768.91;;;20.04;100.00
596;BME280;19946;49.306;11.350;2022-10-31T10:02:37;96757.41;;;20.49;100.00
596;BME280;19946;49.306;11.350;2022-10-31T10:05:45;96747.06;;;20.33;100.00
596;BME280;19946;49.306;11.350;2022-10-31T10:08:54;96746.75;;;20.72;100.00
596;BME280;19946;49.306;11.350;2022-10-31T10:19:12;96752.53;;;21.03;97.56
596;BME280;19946;49.306;11.350;2022-10-31T10:22:41;96743.81;;;20.46;90.85
596;BME280;19946;49.306;11.350;2022-10-31T10:25:45;96750.53;;;20.48;97.02
596;BME280;19946;49.306;11.350;2022-10-31T10:29:02;96739.66;;;20.72;100.00
596;BME280;19946;49.306;11.350;2022-10-31T10:32:29;96736.72;;;20.61;100.00
596;BME280;19946;49.306;11.350;2022-10-31T10:35:36;96731.75;;;20.87;100.00
596;BME280;19946;49.306;11.350;2022-10-31T10:38:51;96729.22;;;21.00;100.00
596;BME280;19946;49.306;11.350;2022-10-31T10:41:52;96722.81;;;21.09;100.00
596;BME280;19946;49.306;11.350;2022-10-31T10:45:17;96725.59;;;21.01;100.00
596;BME280;19946;49.306;11.350;2022-10-31T10:48:53;96723.78;;;20.66;90.21
596;BME280;19946;49.306;11.350;2022-10-31T10:55:22;96715.63;;;20.10;100.00
596;BME280;19946;49.306;11.350;2022-10-31T10:58:26;96721.63;;;20.69;95.13
596;BME280;19946;49.306;11.350;2022-10-31T11:01:27;96711.28;;;20.89;97.31
596;BME280;19946;49.306;11.350;2022-10-31T11:04:33;96719.31;;;20.81;96.98
596;BME280;19946;49.306;11.350;2022-10-31T11:07:38;96711.53;;;20.73;95.46
596;BME280;19946;49.306;11.350;2022-10-31T11:10:39;96708.06;;;20.51;96.90
596;BME280;19946;49.306;11.350;2022-10-31T11:13:41;96706.78;;;20.47;96.28
596;BME280;19946;49.306;11.350;2022-10-31T11:16:45;96705.47;;;20.36;97.99
596;BME280;19946;49.306;11.350;2022-10-31T11:19:47;96693.66;;;20.47;100.00
596;BME280;19946;49.306;11.350;2022-10-31T11:22:48;96700.06;;;20.59;100.00
596;BME280;19946;49.306;11.350;2022-10-31T11:26:14;96694.34;;;20.56;100.00
596;BME280;19946;49.306;11.350;2022-10-31T11:29:23;96685.34;;;20.65;100.00
596;BME280;19946;49.306;11.350;2022-10-31T11:32:27;96674.53;;;20.74;100.00
596;BME280;19946;49.306;11.350;2022-10-31T11:35:28;96681.78;;;20.36;100.00
596;BME280;19946;49.306;11.350;2022-10-31T11:38:35;96680.28;;;20.63;100.00
596;BME280;19946;49.306;11.350;2022-10-31T11:41:40;96665.31;;;20.64;97.52
596;BME280;19946;49.306;11.350;2022-10-31T11:44:44;96660.84;;;20.64;100.00
596;BME280;19946;49.306;11.350;2022-10-31T11:47:49;96658.91;;;20.73;100.00
596;BME280;19946;49.306;11.350;2022-10-31T11:50:57;96658.59;;;20.83;96.50
596;BME280;19946;49.306;11.350;2022-10-31T11:53:59;96658.91;;;20.94;95.88
596;BME280;19946;49.306;11.350;2022-10-31T11:57:02;96655.38;;;21.08;100.00
596;BME280;19946;49.306;11.350;2022-10-31T12:00:05;96648.03;;;20.76;100.00
596;BME280;19946;49.306;11.350;2022-10-31T12:06:32;96643.00;;;20.81;100.00
596;BME280;19946;49.306;11.350;2022-10-31T12:09:35;96636.06;;;21.01;92.25
596;BME280;19946;49.306;11.350;2022-10-31T12:12:49;96631.91;;;21.13;95.82
596;BME280;19946;49.306;11.350;2022-10-31T12:16:02;96635.75;;;21.11;91.65
596;BME280;19946;49.306;11.350;2022-10-31T12:19:11;96632.19;;;21.19;94.11
596;BME280;19946;49.306;11.350;2022-10-31T12:22:52;96635.94;;;21.09;92.10
596;BME280;19946;49.306;11.350;2022-10-31T12:26:18;96627.25;;;20.88;92.12
596;BME280;19946;49.306;11.350;2022-10-31T12:32:52;96624.56;;;20.81;94.72
596;BME280;19946;49.306;11.350;2022-10-31T12:45:57;96611.22;;;20.40;89.22
596;BME280;19946;49.306;11.350;2022-10-31T12:53:00;96610.13;;;19.98;99.49
596;BME280;19946;49.306;11.350;2022-10-31T12:56:13;96608.06;;;19.94;91.96
596;BME280;19946;49.306;11.350;2022-10-31T13:02:43;96602.28;;;19.84;97.54
596;BME280;19946;49.306;11.350;2022-10-31T13:06:02;96592.94;;;19.81;90.69
596;BME280;19946;49.306;11.350;2022-10-31T13:09:10;96589.00;;;19.56;96.39
596;BME280;19946;49.306;11.350;2022-10-31T13:12:15;96591.63;;;19.56;100.00
596;BME280;19946;49.306;11.350;2022-10-31T13:15:21;96584.28;;;19.51;100.00
596;BME280;19946;49.306;11.350;2022-10-31T13:21:34;96577.75;;;19.62;100.00
596;BME280;19946;49.306;11.350;2022-10-31T13:24:41;96574.66;;;19.58;100.00
596;BME280;19946;49.306;11.350;2022-10-31T13:30:51;96577.69;;;19.55;100.00
596;BME280;19946;49.306;11.350;2022-10-31T13:33:55;96570.31;;;19.51;100.00
596;BME280;19946;49.306;11.350;2022-10-31T13:37:50;96572.56;;;19.39;100.00
596;BME280;19946;49.306;11.350;2022-10-31T13:40:42;96571.47;;;19.04;100.00
596;BME280;19946;49.306;11.350;2022-10-31T13:46:57;96561.38;;;18.55;100.00
596;BME280;19946;49.306;11.350;2022-10-31T13:50:19;96562.81;;;18.66;100.00
596;BME280;19946;49.306;11.350;2022-10-31T13:53:43;96557.31;;;18.76;100.00
596;BME280;19946;49.306;11.350;2022-10-31T13:56:48;96556.06;;;18.86;100.00
596;BME280;19946;49.306;11.350;2022-10-31T13:59:55;96553.09;;;19.04;100.00
596;BME280;19946;49.306;11.350;2022-10-31T14:02:56;96552.63;;;19.15;100.00
596;BME280;19946;49.306;11.350;2022-10-31T14:05:57;96546.56;;;19.15;100.00
596;BME280;19946;49.306;11.350;2022-10-31T14:08:58;96543.50;;;19.26;100.00
596;BME280;19946;49.306;11.350;2022-10-31T14:12:03;96544.94;;;19.28;100.00
596;BME280;19946;49.306;11.350;2022-10-31T14:15:20;96542.13;;;19.15;100.00
596;BME280;19946;49.306;11.350;2022-10-31T14:18:28;96530.81;;;19.15;100.00
596;BME280;19946;49.306;11.350;2022-10-31T14:21:38;96541.09;;;19.24;100.00
596;BME280;19946;49.306;11.350;2022-10-31T14:24:39;96533.91;;;19.04;100.00
596;BME280;19946;49.306;11.350;2022-10-31T14:27:46;96539.69;;;18.84;100.00
596;BME280;19946;49.306;11.350;2022-10-31T14:30:55;96529.53;;;18.44;100.00
596;BME280;19946;49.306;11.350;2022-10-31T14:34:01;96523.38;;;18.37;100.00
596;BME280;19946;49.306;11.350;2022-10-31T14:56:37;96504.91;;;17.45;100.00
596;BME280;19946;49.306;11.350;2022-10-31T14:59:44;96491.22;;;17.35;100.00
596;BME280;19946;49.306;11.350;2022-10-31T15:03:18;96488.34;;;17.22;100.00
596;BME280;19946;49.306;11.350;2022-10-31T15:06:23;96485.44;;;17.17;100.00
596;BME280;19946;49.306;11.350;2022-10-31T15:09:34;96485.63;;;16.99;100.00
596;BME280;19946;49.306;11.350;2022-10-31T15:12:35;96477.97;;;16.90;100.00
596;BME280;19946;49.306;11.350;2022-10-31T15:15:39;96478.00;;;16.82;100.00
596;BME280;19946;49.306;11.350;2022-10-31T15:18:47;96476.72;;;16.69;100.00
596;BME280;19946;49.306;11.350;2022-10-31T15:21:51;96472.19;;;16.63;100.00
596;BME280;19946;49.306;11.350;2022-10-31T15:24:53;96470.69;;;16.44;100.00
596;BME280;19946;49.306;11.350;2022-10-31T15:27:56;96464.19;;;16.24;100.00
596;BME280;19946;49.306;11.350;2022-10-31T15:31:02;96466.47;;;16.27;100.00
596;BME280;19946;49.306;11.350;2022-10-31T15:34:12;96454.41;;;16.10;100.00
596;BME280;19946;49.306;11.350;2022-10-31T15:37:20;96450.97;;;16.10;100.00
596;BME280;19946;49.306;11.350;2022-10-31T15:40:23;96444.25;;;15.91;100.00
596;BME280;19946;49.306;11.350;2022-10-31T15:43:24;96459.81;;;16.00;100.00
596;BME280;19946;49.306;11.350;2022-10-31T15:46:25;96446.41;;;16.03;100.00
596;BME280;19946;49.306;11.350;2022-10-31T15:49:49;96446.56;;;15.94;100.00
596;BME280;19946;49.306;11.350;2022-10-31T15:52:50;96448.03;;;15.88;100.00
596;BME280;19946;49.306;11.350;2022-10-31T15:56:00;96443.78;;;15.87;100.00
596;BME280;19946;49.306;11.350;2022-10-31T15:59:02;96442.47;;;15.83;100.00
596;BME280;19946;49.306;11.350;2022-10-31T16:02:09;96445.41;;;15.72;100.00
596;BME280;19946;49.306;11.350;2022-10-31T16:05:18;96447.84;;;15.65;100.00
596;BME280;19946;49.306;11.350;2022-10-31T16:11:36;96467.16;;;15.47;100.00
596;BME280;19946;49.306;11.350;2022-10-31T16:14:38;96455.44;;;15.51;100.00
596;BME280;19946;49.306;11.350;2022-10-31T16:17:42;96445.81;;;15.35;100.00
596;BME280;19946;49.306;11.350;2022-10-31T16:20:49;96444.78;;;15.28;100.00
596;BME280;19946;49.306;11.350;2022-10-31T16:23:53;96439.56;;;15.20;100.00
596;BME280;19946;49.306;11.350;2022-10-31T16:27:05;96437.09;;;15.10;100.00
596;BME280;19946;49.306;11.350;2022-10-31T16:33:31;96444.13;;;15.26;100.00
596;BME280;19946;49.306;11.350;2022-10-31T16:36:36;96442.53;;;15.25;100.00
596;BME280;19946;49.306;11.350;2022-10-31T16:39:39;96445.59;;;15.20;100.00
596;BME280;19946;49.306;11.350;2022-10-31T16:42:40;96442.81;;;15.22;100.00
596;BME280;19946;49.306;11.350;2022-10-31T16:45:46;96449.00;;;15.13;100.00
596;BME280;19946;49.306;11.350;2022-10-31T16:48:47;96446.03;;;15.08;100.00
596;BME280;19946;49.306;11.350;2022-10-31T16:51:48;96445.19;;;14.99;100.00
596;BME280;19946;49.306;11.350;2022-10-31T16:54:48;96448.91;;;14.88;100.00
596;BME280;19946;49.306;11.350;2022-10-31T16:57:54;96453.56;;;14.77;100.00
596;BME280;19946;49.306;11.350;2022-10-31T17:00:56;96463.97;;;14.69;100.00
596;BME280;19946;49.306;11.350;2022-10-31T17:03:57;96472.03;;;14.57;100.00
596;BME280;19946;49.306;11.350;2022-10-31T17:07:01;96478.22;;;14.56;100.00
596;BME280;19946;49.306;11.350;2022-10-31T17:10:02;96483.28;;;14.58;100.00
596;BME280;19946;49.306;11.350;2022-10-31T17:13:06;96484.94;;;14.41;100.00
596;BME280;19946;49.306;11.350;2022-10-31T17:16:08;96488.84;;;14.02;100.00
596;BME280;19946;49.306;11.350;2022-10-31T17:19:11;96480.75;;;13.87;100.00
596;BME280;19946;49.306;11.350;2022-10-31T17:22:12;96485.00;;;13.70;100.00
596;BME280;19946;49.306;11.350;2022-10-31T17:25:16;96479.97;;;13.41;100.00
596;BME280;19946;49.306;11.350;2022-10-31T17:28:17;96477.59;;;13.30;100.00
596;BME280;19946;49.306;11.350;2022-10-31T17:31:22;96480.91;;;13.23;100.00
596;BME280;19946;49.306;11.350;2022-10-31T17:34:23;96482.84;;;13.11;100.00
596;BME280;19946;49.306;11.350;2022-10-31T17:37:23;96481.56;;;12.97;100.00
596;BME280;19946;49.306;11.350;2022-10-31T17:40:23;96472.00;;;12.88;100.00
596;BME280;19946;49.306;11.350;2022-10-31T17:43:24;96478.84;;;12.89;100.00
596;BME280;19946;49.306;11.350;2022-10-31T17:46:26;96475.03;;;12.84;100.00
596;BME280;19946;49.306;11.350;2022-10-31T17:49:27;96470.31;;;12.69;100.00
596;BME280;19946;49.306;11.350;2022-10-31T17:52:27;96472.19;;;12.40;100.00
596;BME280;19946;49.306;11.350;2022-10-31T17:55:28;96467.03;;;12.11;100.00
596;BME280;19946;49.306;11.350;2022-10-31T17:58:29;96458.72;;;11.98;100.00
596;BME280;19946;49.306;11.350;2022-10-31T18:01:29;96454.28;;;11.31;100.00